Terminal Aerodrome Forecast
Issued by NWS

Home | Current Version | Previous Version | Text Only | Print | Product List | Glossary On
Versions: 1 2 3 4 5 6 7 8 9 10 11 12 13 14 15 16 17 18 19 20
000
FTUS44 KJAN 171129
TAFHKS
TAF
KHKS 171129Z 1712/1812 18009KT P6SM OVC008
     FM171500 21010KT P6SM BKN015 OVC025
     FM172100 25007KT P6SM OVC040
     FM180100 VRB03KT P6SM OVC020
     FM180800 VRB03KT 4SM BR OVC007=

USA.gov is the U.S. government's official web portal to all federal, state and local government web resources and services.